createdAt,value
2017-08-04T00:00:46.125Z,0
2017-08-04T00:01:47.591Z,0
2017-08-04T00:02:49.105Z,0
2017-08-04T00:03:50.590Z,0
2017-08-04T00:04:51.959Z,0
2017-08-04T00:05:53.594Z,0
2017-08-04T00:06:55.099Z,0
2017-08-04T00:07:56.597Z,0
2017-08-04T00:08:58.021Z,0
2017-08-04T00:09:59.483Z,0
2017-08-04T00:11:00.992Z,0
2017-08-04T00:12:02.523Z,0
2017-08-04T00:13:04.025Z,0
2017-08-04T00:14:05.533Z,0
2017-08-04T00:15:07.042Z,0
2017-08-04T00:16:08.550Z,0
2017-08-04T00:17:10.042Z,0
2017-08-04T00:18:11.536Z,0
2017-08-04T00:19:13.034Z,0
2017-08-04T00:20:14.552Z,0
2017-08-04T00:21:16.064Z,0
2017-08-04T00:22:17.604Z,0
2017-08-04T00:23:19.105Z,0
2017-08-04T00:24:20.623Z,0
2017-08-04T00:25:22.125Z,0
2017-08-04T00:26:23.638Z,0
2017-08-04T00:27:25.139Z,0
2017-08-04T00:28:26.637Z,0
2017-08-04T00:29:28.164Z,0
2017-08-04T00:30:29.668Z,0
2017-08-04T00:31:31.160Z,0
2017-08-04T00:32:32.673Z,0
2017-08-04T00:33:34.055Z,0
2017-08-04T00:34:35.717Z,0
2017-08-04T00:35:37.245Z,0
2017-08-04T00:36:38.762Z,0
2017-08-04T00:37:40.251Z,0
2017-08-04T00:38:41.754Z,0
2017-08-04T00:39:43.280Z,0
2017-08-04T00:40:44.782Z,0
2017-08-04T00:41:46.301Z,0
2017-08-04T00:42:47.799Z,0
2017-08-04T00:43:49.309Z,0
2017-08-04T00:44:50.828Z,0
2017-08-04T00:45:52.353Z,0
2017-08-04T00:46:53.907Z,0
2017-08-04T00:47:55.437Z,0
2017-08-04T00:48:56.955Z,0
2017-08-04T00:49:58.443Z,0
2017-08-04T00:50:59.983Z,0
2017-08-04T00:52:01.451Z,0
2017-08-04T00:53:02.960Z,0
2017-08-04T00:54:04.470Z,0
2017-08-04T00:55:05.894Z,0
2017-08-04T00:56:07.425Z,0
2017-08-04T00:57:08.960Z,0
2017-08-04T00:58:10.485Z,0
2017-08-04T00:59:12.031Z,0
2017-08-04T01:00:13.471Z,0
2017-08-04T01:01:14.977Z,0
2017-08-04T01:02:16.473Z,0
2017-08-04T01:03:17.893Z,0
2017-08-04T01:04:19.399Z,0
2017-08-04T01:05:20.979Z,0
2017-08-04T01:06:22.479Z,0
2017-08-04T01:07:23.979Z,0
2017-08-04T01:08:25.400Z,0
2017-08-04T01:09:26.899Z,0
2017-08-04T01:10:28.543Z,0
2017-08-04T01:11:30.047Z,0
2017-08-04T01:12:31.567Z,0
2017-08-04T01:13:32.984Z,0
2017-08-04T01:14:34.492Z,0
2017-08-04T01:15:36.093Z,0
2017-08-04T01:16:37.591Z,0
2017-08-04T01:17:39.098Z,0
2017-08-04T01:18:40.517Z,0
2017-08-04T01:19:41.984Z,0
2017-08-04T01:20:43.513Z,0
2017-08-04T01:21:45.003Z,0
2017-08-04T01:22:46.511Z,0
2017-08-04T01:23:48.014Z,0
2017-08-04T01:24:49.513Z,0
2017-08-04T01:25:51.022Z,0
2017-08-04T01:26:52.524Z,0
2017-08-04T01:27:53.900Z,0
2017-08-04T01:28:55.523Z,0
2017-08-04T01:29:57.030Z,0
2017-08-04T01:30:58.541Z,0
2017-08-04T01:31:59.967Z,0
2017-08-04T01:33:01.426Z,0
2017-08-04T01:34:02.933Z,0
2017-08-04T01:35:04.428Z,0
2017-08-04T01:36:05.929Z,0
2017-08-04T01:37:07.428Z,0
2017-08-04T01:38:08.931Z,0
2017-08-04T01:39:10.441Z,0
2017-08-04T01:40:11.867Z,0
2017-08-04T01:41:13.369Z,0
2017-08-04T01:42:14.946Z,0
2017-08-04T01:43:16.446Z,0
2017-08-04T01:44:17.962Z,0
2017-08-04T01:45:19.371Z,0
2017-08-04T01:46:20.876Z,0
2017-08-04T01:47:22.481Z,0
2017-08-04T01:48:23.979Z,0
2017-08-04T01:49:25.489Z,0
2017-08-04T01:50:26.915Z,0
2017-08-04T01:51:28.415Z,0
2017-08-04T01:52:29.934Z,0
2017-08-04T01:53:31.460Z,0
2017-08-04T01:54:32.961Z,0
2017-08-04T01:55:34.456Z,0
2017-08-04T01:56:35.959Z,0
2017-08-04T01:57:37.481Z,0
2017-08-04T01:58:38.972Z,0
2017-08-04T01:59:40.468Z,0
2017-08-04T02:00:41.960Z,0
2017-08-04T02:01:43.470Z,0
2017-08-04T02:02:44.981Z,0
2017-08-04T02:03:46.402Z,0
2017-08-04T02:04:47.920Z,0
2017-08-04T02:05:49.476Z,0
2017-08-04T02:06:50.978Z,0
2017-08-04T02:07:52.480Z,0
2017-08-04T02:08:53.904Z,0
2017-08-04T02:09:55.415Z,0
2017-08-04T02:10:57.005Z,0
2017-08-04T02:11:58.515Z,0
2017-08-04T02:13:00.031Z,0
2017-08-04T02:14:01.437Z,0
2017-08-04T02:15:02.931Z,0
2017-08-04T02:16:04.567Z,0
2017-08-04T02:17:06.076Z,0
2017-08-04T02:18:07.575Z,0
2017-08-04T02:19:08.994Z,0
2017-08-04T02:20:10.499Z,0
2017-08-04T02:21:12.116Z,0
2017-08-04T02:22:13.619Z,0
2017-08-04T02:23:15.137Z,0
2017-08-04T02:24:16.560Z,0
2017-08-04T02:25:18.055Z,0
2017-08-04T02:26:19.565Z,0
2017-08-04T02:27:21.078Z,0
2017-08-04T02:28:22.591Z,0
2017-08-04T02:29:24.088Z,0
2017-08-04T02:30:25.601Z,0
2017-08-04T02:31:27.104Z,0
2017-08-04T02:32:28.600Z,0
2017-08-04T02:33:30.095Z,0
2017-08-04T02:34:31.587Z,0
2017-08-04T02:35:33.092Z,0
2017-08-04T02:36:34.609Z,0
2017-08-04T02:37:36.028Z,0
2017-08-04T02:38:37.489Z,0
2017-08-04T02:39:39.004Z,0
2017-08-04T02:40:40.496Z,0
2017-08-04T02:41:42.000Z,0
2017-08-04T02:42:43.505Z,0
2017-08-04T02:43:45.005Z,0
2017-08-04T02:44:46.533Z,0
2017-08-04T02:45:48.035Z,0
2017-08-04T02:46:49.513Z,0
2017-08-04T02:47:51.010Z,0
2017-08-04T02:48:52.513Z,0
2017-08-04T02:49:54.008Z,0
2017-08-04T02:50:55.428Z,0
2017-08-04T02:51:56.928Z,0
2017-08-04T02:52:58.455Z,0
2017-08-04T02:53:59.931Z,0
2017-08-04T02:55:01.436Z,0
2017-08-04T02:56:02.951Z,0
2017-08-04T02:57:04.455Z,0
2017-08-04T02:58:05.961Z,0
2017-08-04T02:59:07.460Z,0
2017-08-04T03:00:08.842Z,0
2017-08-04T03:01:10.436Z,0
2017-08-04T03:02:11.942Z,0
2017-08-04T03:03:13.440Z,0
2017-08-04T03:04:14.856Z,0
2017-08-04T03:05:16.361Z,0
2017-08-04T03:06:17.864Z,0
2017-08-04T03:07:19.359Z,0
2017-08-04T03:08:20.863Z,0
2017-08-04T03:09:22.356Z,0
2017-08-04T03:10:23.856Z,0
2017-08-04T03:11:25.351Z,0
2017-08-04T03:12:26.774Z,0
2017-08-04T03:13:28.281Z,0
2017-08-04T03:14:29.876Z,0
2017-08-04T03:15:31.384Z,0
2017-08-04T03:16:32.895Z,0
2017-08-04T03:17:34.319Z,0
2017-08-04T03:18:35.801Z,0
2017-08-04T03:19:37.327Z,0
2017-08-04T03:20:38.822Z,0
2017-08-04T03:21:40.332Z,0
2017-08-04T03:22:41.825Z,0
2017-08-04T03:23:43.329Z,0
2017-08-04T03:24:44.843Z,0
2017-08-04T03:25:46.340Z,0
2017-08-04T03:26:47.834Z,0
2017-08-04T03:27:49.319Z,0
2017-08-04T03:28:50.847Z,0
2017-08-04T03:29:52.397Z,0
2017-08-04T03:30:53.893Z,0
2017-08-04T03:31:55.384Z,0
2017-08-04T03:32:56.873Z,0
2017-08-04T03:33:58.386Z,0
2017-08-04T03:34:59.887Z,0
2017-08-04T03:36:01.310Z,0
2017-08-04T03:37:02.762Z,0
2017-08-04T03:38:04.284Z,0
2017-08-04T03:39:05.780Z,0
2017-08-04T03:40:07.280Z,0
2017-08-04T03:41:08.780Z,0
2017-08-04T03:42:10.318Z,0
2017-08-04T03:43:11.831Z,0
2017-08-04T03:44:13.321Z,0
2017-08-04T03:45:14.816Z,0
2017-08-04T03:46:16.313Z,0
2017-08-04T03:47:17.811Z,0
2017-08-04T03:48:19.327Z,0
2017-08-04T03:49:20.875Z,0
2017-08-04T03:50:22.244Z,0
2017-08-04T03:51:23.889Z,0
2017-08-04T03:52:25.397Z,0
2017-08-04T03:53:26.897Z,0
2017-08-04T03:54:28.320Z,0
2017-08-04T03:55:29.824Z,0
2017-08-04T03:56:31.404Z,0
2017-08-04T03:57:32.908Z,0
2017-08-04T03:58:34.403Z,0
2017-08-04T03:59:35.827Z,0
2017-08-04T04:00:37.325Z,0
2017-08-04T04:01:38.934Z,0
2017-08-04T04:02:40.445Z,0
2017-08-04T04:03:41.960Z,0
2017-08-04T04:04:43.393Z,0
2017-08-04T04:05:44.860Z,0
2017-08-04T04:06:46.373Z,5
2017-08-04T04:07:47.865Z,5
2017-08-04T04:08:49.357Z,10
2017-08-04T04:09:50.856Z,10
2017-08-04T04:10:52.365Z,15
2017-08-04T04:11:53.874Z,15
2017-08-04T04:12:55.393Z,15
2017-08-04T04:13:56.766Z,15
2017-08-04T04:14:58.380Z,20
2017-08-04T04:15:59.891Z,20
2017-08-04T04:17:01.404Z,20
2017-08-04T04:18:02.829Z,25
2017-08-04T04:19:04.288Z,20
2017-08-04T04:20:05.793Z,20
2017-08-04T04:21:07.293Z,20
2017-08-04T04:22:08.658Z,20
2017-08-04T04:23:10.275Z,20
2017-08-04T04:24:11.774Z,20
2017-08-04T04:25:13.299Z,25
2017-08-04T04:26:14.724Z,20
2017-08-04T04:27:16.197Z,20
2017-08-04T04:28:17.936Z,15
2017-08-04T04:29:19.441Z,15
2017-08-04T04:30:20.960Z,15
2017-08-04T04:31:22.465Z,15
2017-08-04T04:32:23.966Z,15
2017-08-04T04:33:25.473Z,15
2017-08-04T04:34:27.013Z,15
2017-08-04T04:35:28.635Z,10
2017-08-04T04:36:30.138Z,10
2017-08-04T04:37:31.685Z,10
2017-08-04T04:38:33.187Z,10
2017-08-04T04:39:34.695Z,10
2017-08-04T04:40:36.214Z,10
2017-08-04T04:41:37.715Z,15
2017-08-04T04:42:39.219Z,15
2017-08-04T04:43:40.720Z,20
2017-08-04T04:44:42.223Z,20
2017-08-04T04:45:43.720Z,20
2017-08-04T04:46:45.219Z,20
2017-08-04T04:47:46.723Z,20
2017-08-04T04:48:48.143Z,20
2017-08-04T04:49:49.593Z,20
2017-08-04T04:50:51.094Z,15
2017-08-04T04:51:52.599Z,15
2017-08-04T04:52:53.965Z,15
2017-08-04T04:53:55.619Z,15
2017-08-04T04:54:57.129Z,20
2017-08-04T04:55:58.622Z,20
2017-08-04T04:57:00.039Z,20
2017-08-04T04:58:01.549Z,20
2017-08-04T04:59:03.172Z,15
2017-08-04T05:00:04.677Z,15
2017-08-04T05:01:06.175Z,20
2017-08-04T05:02:07.604Z,20
2017-08-04T05:03:09.116Z,20
2017-08-04T05:04:10.708Z,20
2017-08-04T05:05:12.244Z,20
2017-08-04T05:06:13.745Z,25
2017-08-04T05:07:15.257Z,20
2017-08-04T05:08:16.621Z,15
2017-08-04T05:09:18.268Z,15
2017-08-04T05:10:19.766Z,15
2017-08-04T05:11:21.293Z,15
2017-08-04T05:12:22.794Z,20
2017-08-04T05:13:24.172Z,25
2017-08-04T05:14:25.780Z,30
2017-08-04T05:15:27.277Z,30
2017-08-04T05:16:28.789Z,30
2017-08-04T05:17:30.205Z,30
2017-08-04T05:18:31.730Z,35
2017-08-04T05:19:33.366Z,45
2017-08-04T05:20:34.870Z,40
2017-08-04T05:21:36.400Z,30
2017-08-04T05:22:37.921Z,25
2017-08-04T05:23:39.409Z,35
2017-08-04T05:24:40.908Z,40
2017-08-04T05:25:42.406Z,35
2017-08-04T05:26:43.953Z,40
2017-08-04T05:27:45.461Z,35
2017-08-04T05:28:46.826Z,30
2017-08-04T05:29:48.464Z,20
2017-08-04T05:30:49.963Z,20
2017-08-04T05:31:51.471Z,30
2017-08-04T05:32:52.899Z,45
2017-08-04T05:33:54.356Z,50
2017-08-04T05:34:55.868Z,55
2017-08-04T05:35:57.362Z,60
2017-08-04T05:36:58.866Z,55
2017-08-04T05:38:00.364Z,50
2017-08-04T05:39:01.889Z,45
2017-08-04T05:40:03.399Z,45
2017-08-04T05:41:04.900Z,45
2017-08-04T05:42:06.283Z,40
2017-08-04T05:43:07.884Z,40
2017-08-04T05:44:09.409Z,40
2017-08-04T05:45:10.923Z,40
2017-08-04T05:46:12.345Z,40
2017-08-04T05:47:13.844Z,45
2017-08-04T05:48:15.422Z,40
2017-08-04T05:49:16.918Z,40
2017-08-04T05:50:18.421Z,35
2017-08-04T05:51:19.848Z,30
2017-08-04T05:52:21.361Z,25
2017-08-04T05:53:22.976Z,30
2017-08-04T05:54:24.491Z,35
2017-08-04T05:55:26.012Z,45
2017-08-04T05:56:27.427Z,45
2017-08-04T05:57:28.894Z,55
2017-08-04T05:58:30.410Z,65
2017-08-04T05:59:31.909Z,65
2017-08-04T06:00:33.409Z,70
2017-08-04T06:01:34.942Z,70
2017-08-04T06:02:36.508Z,70
2017-08-04T06:03:38.122Z,65
2017-08-04T06:04:39.629Z,60
2017-08-04T06:05:41.137Z,60
2017-08-04T06:06:42.563Z,55
2017-08-04T06:07:44.090Z,60
2017-08-04T06:08:45.649Z,60
2017-08-04T06:09:47.173Z,65
2017-08-04T06:10:48.721Z,70
2017-08-04T06:11:50.208Z,65
2017-08-04T06:12:51.589Z,65
2017-08-04T06:13:53.241Z,65
2017-08-04T06:14:54.783Z,55
2017-08-04T06:15:56.308Z,45
2017-08-04T06:16:57.820Z,40
2017-08-04T06:17:59.318Z,35
2017-08-04T06:19:00.827Z,40
2017-08-04T06:20:02.348Z,40
2017-08-04T06:21:04.008Z,40
2017-08-04T06:22:05.518Z,50
2017-08-04T06:23:07.024Z,55
2017-08-04T06:24:08.445Z,65
2017-08-04T06:25:09.954Z,75
2017-08-04T06:26:11.516Z,85
2017-08-04T06:27:13.031Z,95
2017-08-04T06:28:14.550Z,100
2017-08-04T06:29:15.984Z,100
2017-08-04T06:30:17.486Z,100
2017-08-04T06:31:19.114Z,95
2017-08-04T06:32:20.616Z,80
2017-08-04T06:33:22.161Z,75
2017-08-04T06:34:23.646Z,80
2017-08-04T06:35:25.140Z,85
2017-08-04T06:36:26.641Z,100
2017-08-04T06:37:28.147Z,95
2017-08-04T06:38:29.661Z,110
2017-08-04T06:39:31.086Z,125
2017-08-04T06:40:32.608Z,150
2017-08-04T06:41:34.180Z,165
2017-08-04T06:42:35.691Z,165
2017-08-04T06:43:37.207Z,160
2017-08-04T06:44:38.628Z,160
2017-08-04T06:45:40.097Z,170
2017-08-04T06:46:41.764Z,185
2017-08-04T06:47:43.270Z,195
2017-08-04T06:48:44.779Z,215
2017-08-04T06:49:46.297Z,200
2017-08-04T06:50:47.683Z,215
2017-08-04T06:51:49.312Z,240
2017-08-04T06:52:50.808Z,210
2017-08-04T06:53:52.336Z,210
2017-08-04T06:54:53.862Z,280
2017-08-04T06:55:55.229Z,165
2017-08-04T06:56:56.858Z,145
2017-08-04T06:57:58.374Z,145
2017-08-04T06:58:59.871Z,125
2017-08-04T07:00:01.399Z,100
2017-08-04T07:01:02.781Z,80
2017-08-04T07:02:04.424Z,80
2017-08-04T07:03:05.928Z,75
2017-08-04T07:04:07.436Z,65
2017-08-04T07:05:08.854Z,65
2017-08-04T07:06:10.401Z,70
2017-08-04T07:07:11.831Z,60
2017-08-04T07:08:13.397Z,65
2017-08-04T07:09:14.840Z,75
2017-08-04T07:10:16.357Z,95
2017-08-04T07:11:17.873Z,105
2017-08-04T07:12:19.476Z,90
2017-08-04T07:13:21.002Z,100
2017-08-04T07:14:22.513Z,120
2017-08-04T07:15:23.942Z,125
2017-08-04T07:16:25.460Z,135
2017-08-04T07:17:27.042Z,120
2017-08-04T07:18:28.547Z,110
2017-08-04T07:19:30.077Z,105
2017-08-04T07:20:31.515Z,95
2017-08-04T07:21:33.023Z,95
2017-08-04T07:22:34.587Z,105
2017-08-04T07:23:36.102Z,125
2017-08-04T07:24:37.600Z,115
2017-08-04T07:25:39.025Z,105
2017-08-04T07:26:40.492Z,110
2017-08-04T07:27:42.046Z,100
2017-08-04T07:28:43.575Z,95
2017-08-04T07:29:45.083Z,100
2017-08-04T07:30:46.507Z,115
2017-08-04T07:31:48.019Z,105
2017-08-04T07:32:49.529Z,105
2017-08-04T07:33:51.043Z,105
2017-08-04T07:34:52.446Z,105
2017-08-04T07:35:54.026Z,100
2017-08-04T07:36:55.551Z,90
2017-08-04T07:37:57.071Z,95
2017-08-04T07:38:58.496Z,90
2017-08-04T07:40:00.002Z,90
2017-08-04T07:41:01.572Z,100
2017-08-04T07:42:03.135Z,100
2017-08-04T07:43:04.786Z,105
2017-08-04T07:44:06.290Z,110
2017-08-04T07:45:07.961Z,105
2017-08-04T07:46:09.391Z,130
2017-08-04T07:47:10.906Z,135
2017-08-04T07:48:12.436Z,155
2017-08-04T07:49:13.981Z,155
2017-08-04T07:50:15.625Z,150
2017-08-04T07:51:17.140Z,160
2017-08-04T07:52:18.643Z,165
2017-08-04T07:53:20.172Z,155
2017-08-04T07:54:21.674Z,120
2017-08-04T07:55:23.196Z,115
2017-08-04T07:56:24.698Z,120
2017-08-04T07:57:26.213Z,110
2017-08-04T07:58:27.716Z,105
2017-08-04T07:59:29.216Z,100
2017-08-04T08:00:30.735Z,85
2017-08-04T08:01:32.247Z,120
2017-08-04T08:02:33.750Z,135
2017-08-04T08:03:35.256Z,135
2017-08-04T08:04:36.760Z,155
2017-08-04T08:05:38.255Z,155
2017-08-04T08:06:39.765Z,160
2017-08-04T08:07:41.303Z,145
2017-08-04T08:08:42.812Z,135
2017-08-04T08:09:44.361Z,130
2017-08-04T08:10:45.876Z,140
2017-08-04T08:11:47.377Z,155
2017-08-04T08:12:48.993Z,140
2017-08-04T08:13:50.499Z,150
2017-08-04T08:14:52.080Z,180
2017-08-04T08:15:53.580Z,170
2017-08-04T08:16:55.104Z,140
2017-08-04T08:17:56.616Z,130
2017-08-04T08:18:58.119Z,120
2017-08-04T08:19:59.622Z,115
2017-08-04T08:21:01.131Z,120
2017-08-04T08:22:02.632Z,110
2017-08-04T08:23:04.132Z,100
2017-08-04T08:24:05.643Z,110
2017-08-04T08:25:07.149Z,115
2017-08-04T08:26:08.579Z,130
2017-08-04T08:27:10.097Z,135
2017-08-04T08:28:11.552Z,140
2017-08-04T08:29:13.069Z,140
2017-08-04T08:30:14.587Z,125
2017-08-04T08:31:16.013Z,110
2017-08-04T08:32:17.544Z,100
2017-08-04T08:33:19.062Z,85
2017-08-04T08:34:20.572Z,80
2017-08-04T08:35:22.069Z,90
2017-08-04T08:36:23.570Z,110
2017-08-04T08:37:25.075Z,125
2017-08-04T08:38:26.579Z,150
2017-08-04T08:39:28.009Z,150
2017-08-04T08:40:29.518Z,140
2017-08-04T08:41:31.126Z,150
2017-08-04T08:42:32.630Z,170
2017-08-04T08:43:34.141Z,190
2017-08-04T08:44:35.650Z,215
2017-08-04T08:45:37.062Z,205
2017-08-04T08:46:38.663Z,180
2017-08-04T08:47:40.200Z,140
2017-08-04T08:48:41.718Z,120
2017-08-04T08:49:43.213Z,130
2017-08-04T08:50:44.779Z,145
2017-08-04T08:51:46.280Z,180
2017-08-04T08:52:47.790Z,180
2017-08-04T08:53:49.442Z,200
2017-08-04T08:54:50.956Z,180
2017-08-04T08:55:52.504Z,180
2017-08-04T08:56:54.003Z,180
2017-08-04T08:57:55.509Z,160
2017-08-04T08:58:57.024Z,150
2017-08-04T08:59:58.536Z,155
2017-08-04T09:01:00.038Z,185
2017-08-04T09:02:01.564Z,210
2017-08-04T09:03:03.079Z,250
2017-08-04T09:04:04.589Z,230
2017-08-04T09:05:06.117Z,210
2017-08-04T09:06:07.730Z,205
2017-08-04T09:07:09.247Z,210
2017-08-04T09:08:10.757Z,200
2017-08-04T09:09:12.185Z,190
2017-08-04T09:10:13.656Z,165
2017-08-04T09:11:15.168Z,135
2017-08-04T09:12:16.671Z,150
2017-08-04T09:13:18.174Z,135
2017-08-04T09:14:19.695Z,105
2017-08-04T09:15:21.251Z,115
2017-08-04T09:16:22.841Z,125
2017-08-04T09:17:24.355Z,155
2017-08-04T09:18:25.862Z,200
2017-08-04T09:19:27.419Z,225
2017-08-04T09:20:28.916Z,185
2017-08-04T09:21:30.420Z,175
2017-08-04T09:22:31.982Z,190
2017-08-04T09:23:33.600Z,195
2017-08-04T09:24:35.126Z,180
2017-08-04T09:25:36.643Z,175
2017-08-04T09:26:38.075Z,225
2017-08-04T09:27:39.582Z,260
2017-08-04T09:28:41.205Z,275
2017-08-04T09:29:42.719Z,280
2017-08-04T09:30:44.224Z,285
2017-08-04T09:31:45.736Z,260
2017-08-04T09:32:47.120Z,225
2017-08-04T09:33:48.744Z,195
2017-08-04T09:34:50.243Z,185
2017-08-04T09:35:51.766Z,175
2017-08-04T09:36:53.194Z,160
2017-08-04T09:37:54.704Z,155
2017-08-04T09:38:56.260Z,150
2017-08-04T09:39:57.788Z,150
2017-08-04T09:40:59.312Z,145
2017-08-04T09:42:00.856Z,140
2017-08-04T09:43:02.360Z,135
2017-08-04T09:44:03.868Z,170
2017-08-04T09:45:05.371Z,175
2017-08-04T09:46:06.891Z,210
2017-08-04T09:47:08.404Z,190
2017-08-04T09:48:09.939Z,195
2017-08-04T09:49:11.446Z,180
2017-08-04T09:50:12.964Z,160
2017-08-04T09:51:14.586Z,175
2017-08-04T09:52:16.133Z,190
2017-08-04T09:53:17.660Z,175
2017-08-04T09:54:19.183Z,200
2017-08-04T09:55:20.691Z,210
2017-08-04T09:56:22.205Z,165
2017-08-04T09:57:23.720Z,165
2017-08-04T09:58:25.263Z,175
2017-08-04T09:59:26.742Z,195
2017-08-04T10:00:28.251Z,185
2017-08-04T10:01:29.769Z,195
2017-08-04T10:02:31.275Z,165
2017-08-04T10:03:32.804Z,155
2017-08-04T10:04:34.298Z,150
2017-08-04T10:05:35.817Z,135
2017-08-04T10:06:37.334Z,170
2017-08-04T10:07:38.849Z,175
2017-08-04T10:08:40.476Z,170
2017-08-04T10:09:41.986Z,165
2017-08-04T10:10:43.498Z,160
2017-08-04T10:11:44.930Z,135
2017-08-04T10:12:46.446Z,145
2017-08-04T10:13:48.019Z,160
2017-08-04T10:14:49.528Z,160
2017-08-04T10:15:51.044Z,165
2017-08-04T10:16:52.477Z,165
2017-08-04T10:17:53.985Z,155
2017-08-04T10:18:55.585Z,180
2017-08-04T10:19:57.085Z,150
2017-08-04T10:20:58.620Z,135
2017-08-04T10:22:00.053Z,135
2017-08-04T10:23:01.558Z,140
2017-08-04T10:24:03.021Z,165
2017-08-04T10:25:04.537Z,190
2017-08-04T10:26:06.044Z,195
2017-08-04T10:27:07.553Z,145
2017-08-04T10:28:09.072Z,120
2017-08-04T10:29:10.731Z,115
2017-08-04T10:30:12.242Z,125
2017-08-04T10:31:13.763Z,115
2017-08-04T10:32:15.266Z,135
2017-08-04T10:33:16.761Z,175
2017-08-04T10:34:18.254Z,185
2017-08-04T10:35:19.793Z,190
2017-08-04T10:36:21.297Z,175
2017-08-04T10:37:22.802Z,130
2017-08-04T10:38:24.302Z,105
2017-08-04T10:39:25.816Z,95
2017-08-04T10:40:27.305Z,100
2017-08-04T10:41:28.810Z,115
2017-08-04T10:42:30.236Z,110
2017-08-04T10:43:31.778Z,90
2017-08-04T10:44:33.295Z,85
2017-08-04T10:45:34.811Z,95
2017-08-04T10:46:36.326Z,120
2017-08-04T10:47:37.799Z,105
2017-08-04T10:48:39.308Z,145
2017-08-04T10:49:40.879Z,190
2017-08-04T10:50:42.394Z,215
2017-08-04T10:51:43.927Z,185
2017-08-04T10:52:45.438Z,145
2017-08-04T10:53:46.827Z,135
2017-08-04T10:54:48.468Z,195
2017-08-04T10:55:49.993Z,205
2017-08-04T10:56:51.499Z,215
2017-08-04T10:57:53.008Z,210
2017-08-04T10:58:54.509Z,215
2017-08-04T10:59:56.006Z,210
2017-08-04T11:00:57.513Z,190
2017-08-04T11:01:59.108Z,165
2017-08-04T11:03:00.647Z,145
2017-08-04T11:04:02.153Z,140
2017-08-04T11:05:03.583Z,165
2017-08-04T11:06:05.099Z,165
2017-08-04T11:07:06.610Z,145
2017-08-04T11:08:08.122Z,140
2017-08-04T11:09:09.773Z,145
2017-08-04T11:10:11.197Z,130
2017-08-04T11:11:12.684Z,130
2017-08-04T11:12:14.181Z,160
2017-08-04T11:13:15.728Z,175
2017-08-04T11:14:17.239Z,180
2017-08-04T11:15:18.675Z,180
2017-08-04T11:16:20.184Z,190
2017-08-04T11:17:21.692Z,170
2017-08-04T11:18:23.211Z,165
2017-08-04T11:19:24.584Z,205
2017-08-04T11:20:26.246Z,210
2017-08-04T11:21:27.774Z,205
2017-08-04T11:22:29.300Z,185
2017-08-04T11:23:30.806Z,195
2017-08-04T11:24:32.320Z,195
2017-08-04T11:25:33.824Z,180
2017-08-04T11:26:35.345Z,175
2017-08-04T11:27:36.995Z,180
2017-08-04T11:28:38.501Z,195
2017-08-04T11:29:40.011Z,180
2017-08-04T11:30:41.531Z,185
2017-08-04T11:31:42.902Z,185
2017-08-04T11:32:44.559Z,175
2017-08-04T11:33:46.067Z,150
2017-08-04T11:34:47.573Z,145
2017-08-04T11:35:49.094Z,105
2017-08-04T11:36:50.626Z,90
2017-08-04T11:37:52.141Z,90
2017-08-04T11:38:53.651Z,80
2017-08-04T11:39:55.278Z,80
2017-08-04T11:40:56.790Z,120
2017-08-04T11:41:58.309Z,155
2017-08-04T11:42:59.734Z,165
2017-08-04T11:44:01.225Z,155
2017-08-04T11:45:02.834Z,160
2017-08-04T11:46:04.366Z,170
2017-08-04T11:47:05.872Z,155
2017-08-04T11:48:07.301Z,130
2017-08-04T11:49:08.822Z,105
2017-08-04T11:50:10.432Z,90
2017-08-04T11:51:11.933Z,80
2017-08-04T11:52:13.446Z,85
2017-08-04T11:53:14.974Z,110
2017-08-04T11:54:16.483Z,130
2017-08-04T11:55:18.011Z,140
2017-08-04T11:56:19.590Z,145
2017-08-04T11:57:21.158Z,130
2017-08-04T11:58:22.672Z,120
2017-08-04T11:59:24.217Z,125
2017-08-04T12:00:25.739Z,130
2017-08-04T12:01:27.118Z,125
2017-08-04T12:02:28.708Z,160
2017-08-04T12:03:30.237Z,165
2017-08-04T12:04:31.828Z,155
2017-08-04T12:05:33.337Z,180
2017-08-04T12:06:34.854Z,195
2017-08-04T12:07:36.369Z,185
2017-08-04T12:08:37.878Z,180
2017-08-04T12:09:39.520Z,175
2017-08-04T12:10:41.060Z,185
2017-08-04T12:11:42.620Z,195
2017-08-04T12:12:44.134Z,195
2017-08-04T12:13:45.633Z,170
2017-08-04T12:14:47.067Z,160
2017-08-04T12:15:48.585Z,130
2017-08-04T12:16:50.085Z,95
2017-08-04T12:17:51.594Z,85
2017-08-04T12:18:52.970Z,75
2017-08-04T12:19:54.631Z,60
2017-08-04T12:20:56.175Z,60
2017-08-04T12:21:57.747Z,65
2017-08-04T12:22:59.254Z,95
2017-08-04T12:24:00.755Z,95
2017-08-04T12:25:02.187Z,115
2017-08-04T12:26:03.699Z,130
2017-08-04T12:27:05.222Z,150
2017-08-04T12:28:06.752Z,170
2017-08-04T12:29:08.259Z,190
2017-08-04T12:30:09.797Z,200
2017-08-04T12:31:11.299Z,205
2017-08-04T12:32:12.960Z,200
2017-08-04T12:33:14.478Z,195
2017-08-04T12:34:15.982Z,190
2017-08-04T12:35:17.485Z,190
2017-08-04T12:36:18.993Z,185
2017-08-04T12:37:20.499Z,185
2017-08-04T12:38:22.004Z,190
2017-08-04T12:39:23.506Z,195
2017-08-04T12:40:25.024Z,190
2017-08-04T12:41:26.408Z,180
2017-08-04T12:42:28.008Z,180
2017-08-04T12:43:29.511Z,180
2017-08-04T12:44:31.037Z,180
2017-08-04T12:45:32.472Z,160
2017-08-04T12:46:33.990Z,150
2017-08-04T12:47:35.539Z,165
2017-08-04T12:48:37.056Z,180
2017-08-04T12:49:38.566Z,190
2017-08-04T12:50:39.993Z,185
2017-08-04T12:51:41.485Z,185
2017-08-04T12:52:43.099Z,195
2017-08-04T12:53:44.610Z,195
2017-08-04T12:54:46.134Z,190
2017-08-04T12:55:47.689Z,190
2017-08-04T12:56:49.190Z,185
2017-08-04T12:57:50.690Z,180
2017-08-04T12:58:52.198Z,175
2017-08-04T12:59:53.700Z,155
2017-08-04T13:00:55.128Z,160
2017-08-04T13:01:56.723Z,170
2017-08-04T13:02:58.144Z,170
2017-08-04T13:03:59.650Z,170
2017-08-04T13:05:01.167Z,170
2017-08-04T13:06:02.593Z,170
2017-08-04T13:07:04.119Z,170
2017-08-04T13:08:05.632Z,165
2017-08-04T13:09:07.143Z,165
2017-08-04T13:10:08.675Z,170
2017-08-04T13:11:10.183Z,170
2017-08-04T13:12:11.694Z,170
2017-08-04T13:13:13.346Z,170
2017-08-04T13:14:14.844Z,175
2017-08-04T13:15:16.348Z,165
2017-08-04T13:16:17.774Z,160
2017-08-04T13:17:19.300Z,150
2017-08-04T13:18:20.921Z,130
2017-08-04T13:19:22.418Z,105
2017-08-04T13:20:24.012Z,90
2017-08-04T13:21:25.524Z,90
2017-08-04T13:22:27.042Z,100
2017-08-04T13:23:28.500Z,95
2017-08-04T13:24:29.990Z,100
2017-08-04T13:25:31.500Z,110
2017-08-04T13:26:33.003Z,95
2017-08-04T13:27:34.509Z,110
2017-08-04T13:28:36.027Z,135
2017-08-04T13:29:37.543Z,145
2017-08-04T13:30:39.083Z,115
2017-08-04T13:31:40.598Z,85
2017-08-04T13:32:42.117Z,95
2017-08-04T13:33:43.622Z,120
2017-08-04T13:34:45.152Z,125
2017-08-04T13:35:46.741Z,120
2017-08-04T13:36:48.241Z,135
2017-08-04T13:37:49.759Z,130
2017-08-04T13:38:51.189Z,155
2017-08-04T13:39:52.657Z,165
2017-08-04T13:40:54.191Z,135
2017-08-04T13:41:55.703Z,115
2017-08-04T13:42:57.291Z,115
2017-08-04T13:43:58.718Z,125
2017-08-04T13:45:00.221Z,90
2017-08-04T13:46:01.884Z,85
2017-08-04T13:47:03.402Z,100
2017-08-04T13:48:04.913Z,110
2017-08-04T13:49:06.428Z,105
2017-08-04T13:50:07.937Z,95
2017-08-04T13:51:09.456Z,95
2017-08-04T13:52:10.963Z,130
2017-08-04T13:53:13.353Z,155
2017-08-04T13:54:14.737Z,135
2017-08-04T13:55:16.253Z,115
2017-08-04T13:56:17.760Z,125
2017-08-04T13:57:19.189Z,120
2017-08-04T13:58:20.711Z,110
2017-08-04T13:59:22.280Z,120
2017-08-04T14:00:23.785Z,150
2017-08-04T14:01:25.308Z,155
2017-08-04T14:02:26.729Z,135
2017-08-04T14:03:28.197Z,105
2017-08-04T14:04:29.720Z,95
2017-08-04T14:05:31.243Z,90
2017-08-04T14:06:32.749Z,95
2017-08-04T14:07:34.259Z,105
2017-08-04T14:08:35.767Z,95
2017-08-04T14:09:37.436Z,95
2017-08-04T14:10:38.949Z,100
2017-08-04T14:11:40.471Z,100
2017-08-04T14:12:41.974Z,105
2017-08-04T14:13:43.505Z,105
2017-08-04T14:14:45.021Z,105
2017-08-04T14:15:46.532Z,100
2017-08-04T14:16:48.131Z,95
2017-08-04T14:17:49.642Z,110
2017-08-04T14:18:51.175Z,110
2017-08-04T14:19:52.611Z,100
2017-08-04T14:20:54.081Z,105
2017-08-04T14:21:55.733Z,125
2017-08-04T14:22:57.255Z,135
2017-08-04T14:23:58.783Z,135
2017-08-04T14:25:00.364Z,110
2017-08-04T14:26:01.883Z,90
2017-08-04T14:27:03.306Z,85
2017-08-04T14:28:04.828Z,85
2017-08-04T14:29:06.343Z,90
2017-08-04T14:30:07.853Z,85
2017-08-04T14:31:09.345Z,90